createdAt,value
2023-01-28T00:01:14.175Z,100830.44
2023-01-28T00:03:42.044Z,100830.47
2023-01-28T00:06:14.429Z,100830.47
2023-01-28T00:08:42.408Z,100828.75
2023-01-28T00:11:12.633Z,100835.59
2023-01-28T00:13:40.421Z,100822.78
2023-01-28T00:16:08.963Z,100825.34
2023-01-28T00:18:36.968Z,100830.47
2023-01-28T00:21:07.433Z,100828.75
2023-01-28T00:23:36.761Z,100823.63
2023-01-28T00:26:07.462Z,100832.16
2023-01-28T00:28:35.519Z,100834.69
2023-01-28T00:31:17.046Z,100837.25
2023-01-28T00:33:46.017Z,100839.84
2023-01-28T00:36:14.431Z,100844.97
2023-01-28T00:38:43.148Z,100842.41
2023-01-28T00:41:16.565Z,100843.25
2023-01-28T00:43:44.983Z,100848.38
2023-01-28T00:46:13.964Z,100844.94
2023-01-28T00:48:42.900Z,100844.91
2023-01-28T00:51:12.170Z,100852.63
2023-01-28T00:53:39.874Z,100840.63
2023-01-28T00:56:09.784Z,100847.47
2023-01-28T00:58:37.082Z,100844.91
2023-01-28T01:01:12.618Z,100850.88
2023-01-28T01:03:40.401Z,100849.19
2023-01-28T01:06:08.281Z,100851.75
2023-01-28T01:08:41.858Z,100859.44
2023-01-28T01:11:11.230Z,100856.00
2023-01-28T01:13:39.321Z,100850.88
2023-01-28T01:16:12.685Z,100856.88
2023-01-28T01:18:43.053Z,100859.44
2023-01-28T01:21:13.206Z,100862.84
2023-01-28T01:23:41.047Z,100859.41
2023-01-28T01:26:08.306Z,100860.25
2023-01-28T01:28:36.685Z,100856.78
2023-01-28T01:31:11.217Z,100859.38
2023-01-28T01:33:39.936Z,100861.13
2023-01-28T01:36:08.216Z,100862.84
2023-01-28T01:38:36.801Z,100862.88
2023-01-28T01:41:05.853Z,100867.16
2023-01-28T01:44:02.974Z,100862.91
2023-01-28T01:46:39.856Z,100864.63
2023-01-28T01:49:17.451Z,100861.22
2023-01-28T01:51:48.381Z,100866.34
2023-01-28T01:54:17.838Z,100865.50
2023-01-28T01:56:48.788Z,100862.94
2023-01-28T01:59:23.641Z,100867.22
2023-01-28T02:01:51.413Z,100868.06
2023-01-28T02:04:32.295Z,100871.50
2023-01-28T02:07:01.642Z,100872.34
2023-01-28T02:09:31.554Z,100861.22
2023-01-28T02:12:07.250Z,100864.66
2023-01-28T02:14:39.395Z,100873.19
2023-01-28T02:17:07.224Z,100862.13
2023-01-28T02:19:42.862Z,100864.66
2023-01-28T02:22:48.420Z,100866.41
2023-01-28T02:25:51.201Z,100857.84
2023-01-28T02:28:21.771Z,100873.22
2023-01-28T02:30:57.369Z,100868.09
2023-01-28T02:33:36.681Z,100863.81
2023-01-28T02:36:16.926Z,100864.66
2023-01-28T02:38:52.915Z,100864.63
2023-01-28T02:41:31.803Z,100871.47
2023-01-28T02:44:03.148Z,100864.66
2023-01-28T02:46:49.390Z,100864.66
2023-01-28T02:49:19.067Z,100864.66
2023-01-28T02:51:58.383Z,100861.28
2023-01-28T02:54:41.991Z,100868.13
2023-01-28T02:57:15.822Z,100869.00
2023-01-28T03:00:07.960Z,100868.16
2023-01-28T03:02:35.652Z,100861.31
2023-01-28T03:05:41.770Z,100854.50
2023-01-28T03:08:41.234Z,100851.94
2023-01-28T03:11:27.161Z,100853.66
2023-01-28T03:14:12.882Z,100848.53
2023-01-28T03:17:00.048Z,100840.81
2023-01-28T03:19:45.809Z,100846.81
2023-01-28T03:22:31.833Z,100837.41
2023-01-28T03:25:19.232Z,100837.41
2023-01-28T03:28:12.642Z,100832.22
2023-01-28T03:31:19.160Z,100823.66
2023-01-28T03:34:11.462Z,100814.19
2023-01-28T03:36:51.563Z,100816.63
2023-01-28T03:39:38.265Z,100814.88
2023-01-28T03:42:09.990Z,100803.72
2023-01-28T03:44:55.273Z,100823.38
2023-01-28T03:47:28.348Z,100827.69
2023-01-28T03:49:59.682Z,100833.69
2023-01-28T03:52:32.148Z,100851.63
2023-01-28T03:55:18.127Z,100841.41
2023-01-28T03:57:45.534Z,100840.59
2023-01-28T04:00:14.300Z,100842.38
2023-01-28T04:02:41.594Z,100847.47
2023-01-28T04:05:12.977Z,100839.78
2023-01-28T04:07:45.922Z,100849.19
2023-01-28T04:10:36.405Z,100845.81
2023-01-28T04:13:18.682Z,100855.22
2023-01-28T04:15:47.417Z,100856.09
2023-01-28T04:18:16.010Z,100856.97
2023-01-28T04:20:43.333Z,100852.72
2023-01-28T04:23:11.259Z,100855.28
2023-01-28T04:25:38.593Z,100851.88
2023-01-28T04:28:09.285Z,100862.16
2023-01-28T04:30:36.812Z,100869.88
2023-01-28T04:33:14.642Z,100872.44
2023-01-28T04:35:56.275Z,100871.63
2023-01-28T04:38:46.044Z,100875.06
2023-01-28T04:41:39.184Z,100875.00
2023-01-28T04:44:16.731Z,100868.19
2023-01-28T04:47:03.748Z,100865.63
2023-01-28T04:49:46.093Z,100876.75
2023-01-28T04:52:22.098Z,100882.75
2023-01-28T04:55:24.829Z,100881.88
2023-01-28T04:57:52.428Z,100883.59
2023-01-28T05:00:19.899Z,100892.16
2023-01-28T05:02:47.378Z,100897.28
2023-01-28T05:05:15.144Z,100900.66
2023-01-28T05:07:58.616Z,100905.81
2023-01-28T05:10:27.479Z,100906.66
2023-01-28T05:12:55.352Z,100904.94
2023-01-28T05:15:22.742Z,100910.91
2023-01-28T05:17:55.297Z,100910.91
2023-01-28T05:20:23.142Z,100921.19
2023-01-28T05:22:51.083Z,100922.03
2023-01-28T05:25:21.313Z,100924.56
2023-01-28T05:27:52.332Z,100921.16
2023-01-28T05:30:21.102Z,100924.56
2023-01-28T05:32:48.960Z,100931.38
2023-01-28T05:35:21.053Z,100927.97
2023-01-28T05:37:48.474Z,100930.50
2023-01-28T05:40:18.073Z,100936.44
2023-01-28T05:42:45.681Z,100934.72
2023-01-28T05:45:31.961Z,100943.25
2023-01-28T05:48:03.037Z,100946.63
2023-01-28T05:51:06.069Z,100949.19
2023-01-28T05:53:35.699Z,100958.53
2023-01-28T05:56:04.521Z,100952.56
2023-01-28T05:58:33.193Z,100960.25
2023-01-28T06:01:04.146Z,100967.03
2023-01-28T06:03:39.673Z,100967.00
2023-01-28T06:06:07.955Z,100968.69
2023-01-28T06:08:37.298Z,100973.78
2023-01-28T06:11:05.081Z,100969.50
2023-01-28T06:13:35.741Z,100982.28
2023-01-28T06:16:26.485Z,100984.00
2023-01-28T06:19:19.939Z,100990.75
2023-01-28T06:21:48.256Z,100997.53
2023-01-28T06:24:15.608Z,100989.06
2023-01-28T06:26:43.103Z,100995.03
2023-01-28T06:29:11.740Z,100987.31
2023-01-28T06:31:39.041Z,100998.41
2023-01-28T06:34:06.377Z,101005.16
2023-01-28T06:36:33.933Z,101014.56
2023-01-28T06:39:01.313Z,101015.50
2023-01-28T06:41:29.887Z,101014.59
2023-01-28T06:43:57.103Z,101018.00
2023-01-28T06:46:25.010Z,101012.00
2023-01-28T06:48:52.626Z,101017.97
2023-01-28T06:51:20.024Z,101022.16
2023-01-28T06:53:47.251Z,101012.84
2023-01-28T06:56:15.117Z,101017.97
2023-01-28T06:58:42.624Z,101029.00
2023-01-28T07:01:10.195Z,101029.91
2023-01-28T07:03:37.537Z,101026.53
2023-01-28T07:06:05.266Z,101018.03
2023-01-28T07:08:33.087Z,101029.09
2023-01-28T07:11:01.043Z,101026.53
2023-01-28T07:13:28.735Z,101033.31
2023-01-28T07:15:56.483Z,101031.66
2023-01-28T07:18:24.493Z,101028.28
2023-01-28T07:20:52.529Z,101035.16
2023-01-28T07:23:19.849Z,101036.06
2023-01-28T07:25:47.144Z,101033.50
2023-01-28T07:28:14.809Z,101030.13
2023-01-28T07:30:43.153Z,101028.41
2023-01-28T07:33:10.424Z,101033.56
2023-01-28T07:35:37.604Z,101033.63
2023-01-28T07:38:05.484Z,101031.97
2023-01-28T07:40:32.720Z,101036.28
2023-01-28T07:43:01.566Z,101044.03
2023-01-28T07:45:37.290Z,101046.66
2023-01-28T07:48:07.393Z,101049.25
2023-01-28T07:50:36.975Z,101048.41
2023-01-28T07:53:06.334Z,101042.44
2023-01-28T07:55:36.101Z,101045.88
2023-01-28T07:58:05.418Z,101045.03
2023-01-28T08:00:36.039Z,101051.88
2023-01-28T08:03:07.928Z,101052.75
2023-01-28T08:05:45.755Z,101057.88
2023-01-28T08:08:13.980Z,101063.00
2023-01-28T08:10:41.694Z,101069.84
2023-01-28T08:13:10.680Z,101066.38
2023-01-28T08:15:39.615Z,101075.75
2023-01-28T08:18:08.926Z,101072.28
2023-01-28T08:20:36.863Z,101080.00
2023-01-28T08:23:17.507Z,101077.38
2023-01-28T08:25:46.009Z,101078.09
2023-01-28T08:28:14.083Z,101091.72
2023-01-28T08:30:41.801Z,101096.81
2023-01-28T08:33:10.540Z,101099.25
2023-01-28T08:35:37.662Z,101105.16
2023-01-28T08:38:06.355Z,101106.56
2023-01-28T08:40:33.521Z,101107.91
2023-01-28T08:43:00.568Z,101112.91
2023-01-28T08:45:28.249Z,101107.63
2023-01-28T08:47:56.523Z,101104.88
2023-01-28T08:50:24.769Z,101108.91
2023-01-28T08:52:55.906Z,101114.19
2023-01-28T08:55:23.357Z,101112.84
2023-01-28T08:57:50.387Z,101110.97
2023-01-28T09:00:17.831Z,101118.59
2023-01-28T09:02:45.689Z,101124.03
2023-01-28T09:05:13.063Z,101126.25
2023-01-28T09:07:40.239Z,101133.72
2023-01-28T09:10:07.529Z,101133.59
2023-01-28T09:12:35.560Z,101135.94
2023-01-28T09:15:05.905Z,101140.78
2023-01-28T09:17:33.661Z,101144.19
2023-01-28T09:20:00.766Z,101153.63
2023-01-28T09:22:27.893Z,101149.78
2023-01-28T09:24:54.922Z,101150.13
2023-01-28T09:27:22.059Z,101156.09
2023-01-28T09:29:50.185Z,101152.84
2023-01-28T09:32:20.150Z,101149.88
2023-01-28T09:34:48.052Z,101157.16
2023-01-28T09:37:15.153Z,101150.50
2023-01-28T09:39:42.378Z,101157.47
2023-01-28T09:42:18.390Z,101165.00
2023-01-28T09:44:51.807Z,101169.31
2023-01-28T09:47:25.162Z,101163.91
2023-01-28T09:49:54.351Z,101164.91
2023-01-28T09:52:23.547Z,101165.72
2023-01-28T09:54:53.560Z,101165.69
2023-01-28T09:57:22.882Z,101165.19
2023-01-28T09:59:50.283Z,101169.97
2023-01-28T10:02:34.188Z,101171.41
2023-01-28T10:05:05.093Z,101167.13
2023-01-28T10:07:36.321Z,101163.06
2023-01-28T10:10:22.165Z,101168.44
2023-01-28T10:12:52.388Z,101165.59
2023-01-28T10:15:50.908Z,101164.00
2023-01-28T10:18:27.805Z,101164.84
2023-01-28T10:21:02.012Z,101160.25
2023-01-28T10:23:46.468Z,101164.91
2023-01-28T10:26:23.278Z,101157.75
2023-01-28T10:29:00.598Z,101163.75
2023-01-28T10:31:31.907Z,101159.66
2023-01-28T10:33:59.809Z,101161.00
2023-01-28T10:36:27.886Z,101154.00
2023-01-28T10:38:54.907Z,101151.13
2023-01-28T10:41:22.994Z,101147.13
2023-01-28T10:43:50.381Z,101141.06
2023-01-28T10:46:21.776Z,101141.38
2023-01-28T10:48:50.103Z,101138.91
2023-01-28T10:51:20.639Z,101131.50
2023-01-28T10:53:48.547Z,101134.47
2023-01-28T10:56:19.454Z,101130.47
2023-01-28T10:58:49.356Z,101120.81
2023-01-28T11:01:16.572Z,101105.88
2023-01-28T11:03:53.280Z,101113.50
2023-01-28T11:06:25.563Z,101109.00
2023-01-28T11:08:54.267Z,101116.66
2023-01-28T11:11:26.877Z,101108.09
2023-01-28T11:13:58.892Z,101114.72
2023-01-28T11:16:27.314Z,101116.91
2023-01-28T11:18:59.713Z,101112.69
2023-01-28T11:21:29.697Z,101102.09
2023-01-28T11:24:02.650Z,101103.06
2023-01-28T11:26:40.425Z,101099.66
2023-01-28T11:29:08.493Z,101093.53
2023-01-28T11:31:40.023Z,101093.28
2023-01-28T11:34:07.143Z,101091.75
2023-01-28T11:36:35.178Z,101088.50
2023-01-28T11:39:25.789Z,101087.53
2023-01-28T11:41:53.510Z,101080.69
2023-01-28T11:44:21.775Z,101077.69
2023-01-28T11:46:52.429Z,101078.72
2023-01-28T11:49:34.984Z,101063.88
2023-01-28T11:52:05.564Z,101062.59
2023-01-28T11:54:32.696Z,101065.91
2023-01-28T11:57:32.474Z,101062.19
2023-01-28T12:00:19.365Z,101055.28
2023-01-28T12:03:01.612Z,101048.56
2023-01-28T12:05:51.474Z,101046.44
2023-01-28T12:08:24.915Z,101037.63
2023-01-28T12:11:08.942Z,101037.78
2023-01-28T12:14:04.439Z,101047.03
2023-01-28T12:16:43.729Z,101037.28
2023-01-28T12:19:19.792Z,101035.59
2023-01-28T12:21:47.023Z,101029.75
2023-01-28T12:24:19.849Z,101027.00
2023-01-28T12:26:54.156Z,101028.44
2023-01-28T12:29:30.104Z,101031.84
2023-01-28T12:32:06.602Z,101025.38
2023-01-28T12:34:52.120Z,101028.09
2023-01-28T12:37:37.825Z,101026.25
2023-01-28T12:40:23.467Z,101024.38
2023-01-28T12:42:53.852Z,101017.25
2023-01-28T12:45:24.933Z,101026.69
2023-01-28T12:48:01.571Z,101015.81
2023-01-28T12:50:33.619Z,101027.78
2023-01-28T12:53:03.892Z,101022.91
2023-01-28T12:55:44.392Z,101011.03
2023-01-28T12:58:18.528Z,101019.06
2023-01-28T13:00:48.854Z,101023.47
2023-01-28T13:03:22.394Z,101019.53
2023-01-28T13:05:55.757Z,101013.44
2023-01-28T13:08:29.448Z,101017.75
2023-01-28T13:11:01.127Z,101010.84
2023-01-28T13:13:28.857Z,101024.94
2023-01-28T13:15:56.272Z,101010.72
2023-01-28T13:18:42.584Z,101018.19
2023-01-28T13:21:24.984Z,101024.09
2023-01-28T13:24:04.386Z,101020.50
2023-01-28T13:26:40.874Z,101020.19
2023-01-28T13:29:17.253Z,101024.72
2023-01-28T13:31:45.621Z,101026.97
2023-01-28T13:34:29.943Z,101031.44
2023-01-28T13:36:58.393Z,101038.31
2023-01-28T13:39:26.317Z,101036.59
2023-01-28T13:41:55.258Z,101040.16
2023-01-28T13:44:25.508Z,101034.72
2023-01-28T13:46:57.721Z,101036.69
2023-01-28T13:49:38.984Z,101032.44
2023-01-28T13:52:12.393Z,101036.59
2023-01-28T13:54:44.038Z,101041.91
2023-01-28T13:57:20.147Z,101049.06
2023-01-28T14:00:13.101Z,101050.13
2023-01-28T14:02:40.353Z,101043.88
2023-01-28T14:05:36.438Z,101045.22
2023-01-28T14:08:10.281Z,101049.19
2023-01-28T14:10:40.469Z,101057.78
2023-01-28T14:13:10.670Z,101061.25
2023-01-28T14:15:46.137Z,101069.88
2023-01-28T14:18:22.971Z,101069.97
2023-01-28T14:20:50.741Z,101063.59
2023-01-28T14:23:19.241Z,101068.97
2023-01-28T14:26:04.995Z,101063.25
2023-01-28T14:28:36.683Z,101072.88
2023-01-28T14:31:27.300Z,101072.59
2023-01-28T14:33:58.240Z,101064.22
2023-01-28T14:36:25.297Z,101068.56
2023-01-28T14:38:52.394Z,101070.13
2023-01-28T14:41:25.352Z,101069.31
2023-01-28T14:43:54.270Z,101072.19
2023-01-28T14:46:44.751Z,101075.06
2023-01-28T14:49:11.850Z,101078.53
2023-01-28T14:51:51.476Z,101083.13
2023-01-28T14:54:24.826Z,101090.56
2023-01-28T14:57:24.501Z,101089.94
2023-01-28T14:59:53.881Z,101097.91
2023-01-28T15:02:22.389Z,101099.13
2023-01-28T15:04:50.239Z,101096.06
2023-01-28T15:07:20.449Z,101097.56
2023-01-28T15:09:48.509Z,101096.19
2023-01-28T15:12:17.169Z,101094.28
2023-01-28T15:14:45.484Z,101097.09
2023-01-28T15:17:21.789Z,101105.13
2023-01-28T15:19:49.278Z,101100.13
2023-01-28T15:22:16.356Z,101107.25
2023-01-28T15:24:44.281Z,101094.97
2023-01-28T15:27:17.546Z,101098.66
2023-01-28T15:29:51.354Z,101103.81
2023-01-28T15:32:22.565Z,101105.97
2023-01-28T15:34:49.657Z,101106.94
2023-01-28T15:37:17.945Z,101117.44
2023-01-28T15:39:45.085Z,101115.06
2023-01-28T15:42:19.415Z,101112.34
2023-01-28T15:44:47.085Z,101128.19
2023-01-28T15:47:26.014Z,101120.47
2023-01-28T15:49:54.421Z,101125.63
2023-01-28T15:52:30.665Z,101125.91
2023-01-28T15:54:58.034Z,101131.66
2023-01-28T15:57:31.147Z,101135.50
2023-01-28T16:00:08.628Z,101136.06
2023-01-28T16:02:47.330Z,101139.53
2023-01-28T16:05:32.458Z,101139.03
2023-01-28T16:08:03.769Z,101149.28
2023-01-28T16:10:31.089Z,101148.91
2023-01-28T16:13:10.368Z,101155.28
2023-01-28T16:15:39.265Z,101156.41
2023-01-28T16:18:06.865Z,101160.94
2023-01-28T16:20:34.337Z,101160.38
2023-01-28T16:23:03.903Z,101159.72
2023-01-28T16:25:34.051Z,101162.44
2023-01-28T16:28:01.863Z,101169.31
2023-01-28T16:30:29.377Z,101166.81
2023-01-28T16:32:56.751Z,101165.19
2023-01-28T16:35:42.640Z,101177.34
2023-01-28T16:38:17.167Z,101185.16
2023-01-28T16:40:45.834Z,101182.66
2023-01-28T16:43:15.139Z,101187.00
2023-01-28T16:45:42.901Z,101187.09
2023-01-28T16:48:10.345Z,101190.56
2023-01-28T16:50:40.784Z,101190.66
2023-01-28T16:53:20.351Z,101195.88
2023-01-28T16:55:49.920Z,101206.25
2023-01-28T16:58:22.689Z,101206.25
2023-01-28T17:00:49.927Z,101224.28
2023-01-28T17:03:17.180Z,101220.91
2023-01-28T17:05:44.490Z,101222.59
2023-01-28T17:08:11.868Z,101218.34
2023-01-28T17:10:39.278Z,101221.78
2023-01-28T17:13:06.397Z,101232.06
2023-01-28T17:15:34.508Z,101228.69
2023-01-28T17:18:01.533Z,101241.56
2023-01-28T17:20:28.646Z,101242.44
2023-01-28T17:22:55.633Z,101247.63
2023-01-28T17:25:22.765Z,101251.91
2023-01-28T17:27:50.223Z,101251.91
2023-01-28T17:30:18.719Z,101258.75
2023-01-28T17:32:45.906Z,101261.31
2023-01-28T17:35:14.794Z,101261.34
2023-01-28T17:37:42.096Z,101273.34
2023-01-28T17:40:10.006Z,101270.78
2023-01-28T17:42:37.210Z,101271.66
2023-01-28T17:45:05.376Z,101281.94
2023-01-28T17:47:32.834Z,101280.25
2023-01-28T17:50:00.106Z,101283.69
2023-01-28T17:52:27.452Z,101279.41
2023-01-28T17:54:55.029Z,101282.00
2023-01-28T17:57:22.757Z,101293.09
2023-01-28T17:59:50.107Z,101293.97
2023-01-28T18:02:17.634Z,101298.25
2023-01-28T18:04:45.128Z,101305.97
2023-01-28T18:07:12.557Z,101305.97
2023-01-28T18:09:42.234Z,101310.25
2023-01-28T18:12:11.978Z,101319.66
2023-01-28T18:14:39.668Z,101314.50
2023-01-28T18:17:08.044Z,101321.38
2023-01-28T18:19:35.300Z,101315.34
2023-01-28T18:22:02.830Z,101328.19
2023-01-28T18:24:30.785Z,101331.63
2023-01-28T18:27:00.016Z,101330.75
2023-01-28T18:29:28.848Z,101329.03
2023-01-28T18:31:57.984Z,101332.44
2023-01-28T18:34:27.266Z,101331.59
2023-01-28T18:36:54.724Z,101329.88
2023-01-28T18:39:22.190Z,101334.13
2023-01-28T18:41:53.770Z,101335.00
2023-01-28T18:44:23.117Z,101343.56
2023-01-28T18:46:51.364Z,101350.34
2023-01-28T18:49:19.277Z,101350.34
2023-01-28T18:51:46.812Z,101352.03
2023-01-28T18:54:15.662Z,101350.34
2023-01-28T18:56:43.830Z,101356.34
2023-01-28T18:59:13.872Z,101359.75
2023-01-28T19:01:42.667Z,101358.81
2023-01-28T19:04:10.566Z,101362.22
2023-01-28T19:06:38.573Z,101369.00
2023-01-28T19:09:09.021Z,101366.38
2023-01-28T19:11:38.461Z,101368.97
2023-01-28T19:14:06.227Z,101378.31
2023-01-28T19:16:35.264Z,101379.06
2023-01-28T19:19:02.749Z,101384.13
2023-01-28T19:21:30.266Z,101380.66
2023-01-28T19:24:03.034Z,101384.13
2023-01-28T19:26:31.208Z,101384.94
2023-01-28T19:28:58.971Z,101385.78
2023-01-28T19:31:27.666Z,101392.63
2023-01-28T19:33:57.633Z,101389.13
2023-01-28T19:36:26.761Z,101403.72
2023-01-28T19:38:59.053Z,101402.78
2023-01-28T19:41:28.210Z,101406.13
2023-01-28T19:43:57.040Z,101409.53
2023-01-28T19:46:25.425Z,101411.38
2023-01-28T19:48:53.466Z,101413.97
2023-01-28T19:51:21.645Z,101402.78
2023-01-28T19:53:54.085Z,101416.38
2023-01-28T19:56:23.903Z,101414.78
2023-01-28T19:58:54.016Z,101419.75
2023-01-28T20:01:29.693Z,101424.88
2023-01-28T20:03:59.718Z,101424.09
2023-01-28T20:06:29.338Z,101424.88
2023-01-28T20:09:00.185Z,101429.94
2023-01-28T20:11:27.912Z,101435.06
2023-01-28T20:13:55.938Z,101430.03
2023-01-28T20:16:31.826Z,101430.63
2023-01-28T20:19:07.174Z,101424.75
2023-01-28T20:21:35.631Z,101429.84
2023-01-28T20:24:03.631Z,101432.41
2023-01-28T20:26:34.065Z,101436.72
2023-01-28T20:29:06.693Z,101441.72
2023-01-28T20:31:34.607Z,101457.03
2023-01-28T20:34:02.194Z,101450.13
2023-01-28T20:36:30.218Z,101456.22
2023-01-28T20:38:57.798Z,101459.59
2023-01-28T20:41:26.802Z,101458.63
2023-01-28T20:43:54.378Z,101466.34
2023-01-28T20:46:24.788Z,101479.13
2023-01-28T20:48:54.623Z,101474.13
2023-01-28T20:51:25.347Z,101484.41
2023-01-28T20:53:53.715Z,101478.50
2023-01-28T20:56:23.875Z,101481.06
2023-01-28T20:58:56.831Z,101481.16
2023-01-28T21:01:27.074Z,101479.41
2023-01-28T21:03:56.015Z,101477.63
2023-01-28T21:06:24.695Z,101487.81
2023-01-28T21:08:53.180Z,101489.50
2023-01-28T21:11:21.687Z,101482.66
2023-01-28T21:13:49.695Z,101489.47
2023-01-28T21:16:18.012Z,101481.75
2023-01-28T21:18:45.932Z,101492.88
2023-01-28T21:21:26.359Z,101495.38
2023-01-28T21:23:58.005Z,101497.00
2023-01-28T21:26:26.191Z,101509.63
2023-01-28T21:28:53.557Z,101516.47
2023-01-28T21:31:25.026Z,101508.00
2023-01-28T21:33:55.349Z,101506.25
2023-01-28T21:36:25.452Z,101516.63
2023-01-28T21:38:54.808Z,101518.25
2023-01-28T21:41:23.096Z,101514.91
2023-01-28T21:43:57.540Z,101513.19
2023-01-28T21:46:27.759Z,101519.25
2023-01-28T21:48:56.965Z,101523.56
2023-01-28T21:51:45.854Z,101525.25
2023-01-28T21:54:16.187Z,101529.53
2023-01-28T21:56:45.250Z,101533.84
2023-01-28T21:59:28.699Z,101536.41
2023-01-28T22:01:58.089Z,101535.56
2023-01-28T22:04:31.411Z,101538.13
2023-01-28T22:06:59.517Z,101539.88
2023-01-28T22:09:28.356Z,101538.06
2023-01-28T22:12:03.792Z,101545.69
2023-01-28T22:14:31.054Z,101551.69
2023-01-28T22:16:58.668Z,101552.56
2023-01-28T22:19:26.108Z,101549.91
2023-01-28T22:21:53.639Z,101556.66
2023-01-28T22:24:24.218Z,101554.91
2023-01-28T22:26:53.079Z,101547.97
2023-01-28T22:29:22.645Z,101552.28
2023-01-28T22:31:52.329Z,101553.97
2023-01-28T22:34:21.181Z,101563.31
2023-01-28T22:36:50.246Z,101564.16
2023-01-28T22:39:18.313Z,101568.63
2023-01-28T22:41:46.305Z,101567.06
2023-01-28T22:44:14.011Z,101569.66
2023-01-28T22:46:42.964Z,101573.00
2023-01-28T22:49:14.945Z,101578.91
2023-01-28T22:51:42.977Z,101574.56
2023-01-28T22:54:14.891Z,101579.75
2023-01-28T22:56:42.405Z,101573.72
2023-01-28T22:59:10.548Z,101576.28
2023-01-28T23:01:38.054Z,101582.19
2023-01-28T23:04:07.643Z,101577.84
2023-01-28T23:06:38.222Z,101579.66
2023-01-28T23:09:05.549Z,101572.81
2023-01-28T23:11:33.500Z,101575.28
2023-01-28T23:14:21.740Z,101574.47
2023-01-28T23:17:09.215Z,101567.69
2023-01-28T23:19:56.050Z,101565.09
2023-01-28T23:22:47.363Z,101568.56
2023-01-28T23:25:15.888Z,101562.50
2023-01-28T23:27:43.702Z,101561.56
2023-01-28T23:30:13.301Z,101568.41
2023-01-28T23:32:46.219Z,101579.34
2023-01-28T23:35:14.270Z,101576.72
2023-01-28T23:37:41.623Z,101579.22
2023-01-28T23:40:09.560Z,101572.31
2023-01-28T23:42:37.167Z,101569.88
2023-01-28T23:45:05.316Z,101577.47
2023-01-28T23:47:32.693Z,101572.44
2023-01-28T23:50:00.482Z,101575.00
2023-01-28T23:52:27.857Z,101574.13
2023-01-28T23:54:56.167Z,101574.13
2023-01-28T23:57:23.424Z,101580.22
2023-01-28T23:59:51.328Z,101581.19
